Time;durP1;ratioP1;P1;durP2;ratioP2;P2;SDS_P1;SDS_P2;PMS_P1;PMS_P2;Temp;Humidity;BMP_temperature;BMP_pressure;BME280_temperature;BME280_humidity;BME280_pressure;Samples;Min_cycle;Max_cycle;Signal;HPM_P1;HPM_P2
2021/11/19 00:00:36;;;;;;;34.70;17.97;;;9.70;99.90;;;;;;5014825;28;20192;-89
2021/11/19 00:03:02;;;;;;;31.03;19.47;;;9.60;99.90;;;;;;5014619;28;20412;-89
2021/11/19 00:05:28;;;;;;;26.05;17.90;;;9.30;99.90;;;;;;5010665;28;20427;-90
2021/11/19 00:07:54;;;;;;;40.10;19.80;;;9.60;99.90;;;;;;5014577;28;20165;-90
2021/11/19 00:10:19;;;;;;;27.03;18.93;;;9.40;99.90;;;;;;5014037;28;20283;-90
2021/11/19 00:12:45;;;;;;;45.77;20.33;;;;;;;;;;5014286;28;20171;-91
2021/11/19 00:15:12;;;;;;;25.53;18.23;;;9.80;99.90;;;;;;5008026;28;20226;-89
2021/11/19 00:17:38;;;;;;;43.50;22.52;;;9.30;99.90;;;;;;5014376;28;20408;-89
2021/11/19 00:20:07;;;;;;;31.40;20.90;;;9.60;99.90;;;;;;5006964;28;20180;-89
2021/11/19 00:22:34;;;;;;;36.93;18.60;;;9.70;99.90;;;;;;5013354;28;20418;-91
2021/11/19 00:24:59;;;;;;;31.08;18.80;;;9.40;99.90;;;;;;5006480;28;20752;-90
2021/11/19 00:27:25;;;;;;;30.53;17.90;;;9.20;99.90;;;;;;5014552;28;20176;-90
2021/11/19 00:29:52;;;;;;;27.80;16.83;;;;;;;;;;5014439;28;20212;-90
2021/11/19 00:32:18;;;;;;;28.55;19.70;;;9.70;99.90;;;;;;5009375;28;20181;-91
2021/11/19 00:34:44;;;;;;;32.92;17.70;;;;;;;;;;5016322;28;20175;-90
2021/11/19 00:37:10;;;;;;;30.40;18.75;;;9.70;99.90;;;;;;5019728;28;20251;-91
2021/11/19 00:39:37;;;;;;;40.58;20.65;;;9.70;99.90;;;;;;5013001;28;20176;-90
2021/11/19 00:42:04;;;;;;;31.95;21.80;;;9.80;99.90;;;;;;5023900;28;20177;-90
2021/11/19 00:44:30;;;;;;;38.65;23.40;;;9.70;99.90;;;;;;5026226;28;20271;-90
2021/11/19 00:46:57;;;;;;;32.60;19.77;;;9.40;99.90;;;;;;5006233;28;20168;-89
2021/11/19 00:49:26;;;;;;;38.30;22.92;;;9.40;99.90;;;;;;5012855;28;20419;-90
2021/11/19 00:51:54;;;;;;;41.35;23.77;;;10.10;99.90;;;;;;5012981;28;20187;-90
2021/11/19 00:54:20;;;;;;;47.72;23.98;;;;;;;;;;5014225;28;20165;-90
2021/11/19 00:56:49;;;;;;;42.33;23.05;;;9.50;99.90;;;;;;5012480;28;20176;-90
2021/11/19 00:59:17;;;;;;;38.60;23.30;;;9.50;99.90;;;;;;5014144;28;20168;-89
2021/11/19 01:01:50;;;;;;;40.72;23.80;;;9.10;99.90;;;;;;5012259;28;20185;-89
2021/11/19 01:04:17;;;;;;;34.45;20.40;;;9.50;99.90;;;;;;5013890;28;20172;-90
2021/11/19 01:06:44;;;;;;;38.40;21.80;;;9.30;99.90;;;;;;5011944;28;20187;-91
2021/11/19 01:09:15;;;;;;;48.85;21.73;;;9.60;99.90;;;;;;5007349;28;20179;-90
2021/11/19 01:11:42;;;;;;;47.67;22.67;;;9.50;99.90;;;;;;5012928;28;20176;-89
2021/11/19 01:14:15;;;;;;;52.70;25.20;;;8.50;99.90;;;;;;5007218;28;20423;-90
2021/11/19 01:16:47;;;;;;;43.97;24.15;;;9.10;99.90;;;;;;5013863;28;20519;-90
2021/11/19 01:19:18;;;;;;;42.92;23.30;;;9.30;99.90;;;;;;5007570;28;20172;-90
2021/11/19 01:21:56;;;;;;;49.60;21.92;;;9.60;99.90;;;;;;5011857;28;20172;-90
2021/11/19 01:24:23;;;;;;;40.63;21.40;;;9.50;99.90;;;;;;5013860;28;20219;-90
2021/11/19 01:26:48;;;;;;;50.17;24.73;;;9.20;99.90;;;;;;5012759;28;20416;-90
2021/11/19 01:29:17;;;;;;;49.63;23.70;;;9.20;99.90;;;;;;5012702;28;20196;-90
2021/11/19 01:31:47;;;;;;;43.80;26.43;;;9.40;99.90;;;;;;5013630;28;20200;-90
2021/11/19 01:34:13;;;;;;;36.25;23.85;;;9.20;99.90;;;;;;5013599;28;20501;-91
2021/11/19 01:36:39;;;;;;;51.67;25.27;;;8.60;99.90;;;;;;5010956;28;20234;-90
2021/11/19 01:39:09;;;;;;;51.60;22.63;;;9.10;99.90;;;;;;5006517;28;20636;-89
2021/11/19 01:41:41;;;;;;;39.65;22.40;;;9.60;99.90;;;;;;5012529;28;20750;-90
2021/11/19 01:44:24;;;;;;;48.15;22.45;;;12.40;99.90;;;;;;5013269;28;20276;-89
2021/11/19 01:46:53;;;;;;;41.25;24.42;;;9.60;99.90;;;;;;5003712;28;20168;-90
2021/11/19 01:49:20;;;;;;;36.92;22.98;;;9.40;99.90;;;;;;5012883;28;20215;-90
2021/11/19 01:51:58;;;;;;;48.85;25.35;;;7.30;99.90;;;;;;5013121;28;20177;-90
2021/11/19 01:54:41;;;;;;;42.08;21.30;;;9.50;99.90;;;;;;5008497;28;20215;-91
2021/11/19 01:57:15;;;;;;;44.47;25.23;;;10.70;99.90;;;;;;5012221;28;20173;-91
2021/11/19 01:59:55;;;;;;;51.77;26.17;;;9.60;99.90;;;;;;5012176;28;20435;-91
2021/11/19 02:02:34;;;;;;;51.15;26.17;;;9.50;99.90;;;;;;5010458;28;20408;-90
2021/11/19 02:05:25;;;;;;;45.83;24.80;;;9.50;99.90;;;;;;5014493;28;20299;-90
2021/11/19 02:07:54;;;;;;;42.85;24.65;;;9.60;99.90;;;;;;5003411;28;20443;-90
2021/11/19 02:10:29;;;;;;;41.60;25.75;;;9.50;99.90;;;;;;5014787;28;20695;-90
2021/11/19 02:13:34;;;;;;;38.13;22.67;;;9.60;99.90;;;;;;5014360;28;20164;-89
2021/11/19 02:16:04;;;;;;;40.75;22.58;;;8.60;99.90;;;;;;5005453;28;20231;-89
2021/11/19 02:18:46;;;;;;;58.08;25.30;;;9.60;99.90;;;;;;5012188;28;20168;-90
2021/11/19 02:21:20;;;;;;;46.88;25.80;;;9.70;99.90;;;;;;5007366;28;20231;-90
2021/11/19 02:24:17;;;;;;;51.92;27.45;;;8.40;99.90;;;;;;5012321;28;20199;-91
2021/11/19 02:26:58;;;;;;;38.00;23.17;;;9.40;99.90;;;;;;4991382;28;20204;-91
2021/11/19 02:29:24;;;;;;;39.92;24.45;;;9.30;99.90;;;;;;5013364;28;20179;-91
2021/11/19 02:31:53;;;;;;;52.63;27.17;;;9.30;99.90;;;;;;5013801;28;20259;-91
2021/11/19 02:34:20;;;;;;;37.85;26.52;;;11.50;99.90;;;;;;5016689;28;20169;-92
2021/11/19 02:36:53;;;;;;;45.78;24.02;;;9.60;99.90;;;;;;5015038;28;20235;-91
2021/11/19 02:39:25;;;;;;;44.83;26.97;;;9.80;99.90;;;;;;5016797;28;20165;-90
2021/11/19 02:41:57;;;;;;;45.85;24.60;;;9.70;99.90;;;;;;5007371;28;20818;-91
2021/11/19 02:44:27;;;;;;;51.22;28.85;;;9.70;99.90;;;;;;5015570;28;20175;-89
2021/11/19 02:46:56;;;;;;;52.85;28.27;;;9.70;99.90;;;;;;5015598;28;20173;-91
2021/11/19 02:49:22;;;;;;;48.05;26.75;;;;;;;;;;5015058;28;20173;-90
2021/11/19 02:51:49;;;;;;;44.20;27.20;;;9.80;99.90;;;;;;5015192;28;20191;-89
2021/11/19 02:54:17;;;;;;;51.67;28.60;;;9.30;99.90;;;;;;5015306;28;20427;-90
2021/11/19 02:56:45;;;;;;;45.38;28.08;;;12.20;99.90;;;;;;5015495;28;20934;-90
2021/11/19 02:59:11;;;;;;;53.13;27.90;;;9.80;99.90;;;;;;5016453;28;20168;-90
2021/11/19 03:01:41;;;;;;;47.60;27.23;;;9.80;99.90;;;;;;5013492;28;20172;-90
2021/11/19 03:04:16;;;;;;;49.43;26.30;;;9.50;99.90;;;;;;5009591;28;20173;-91
2021/11/19 03:06:45;;;;;;;41.38;25.20;;;9.40;99.90;;;;;;5016495;28;20410;-91
2021/11/19 03:09:13;;;;;;;47.25;26.02;;;11.60;99.90;;;;;;5010366;28;20168;-91
2021/11/19 03:11:40;;;;;;;50.20;25.97;;;7.60;99.90;;;;;;5015138;28;20177;-91
2021/11/19 03:14:07;;;;;;;47.75;26.73;;;9.80;99.90;;;;;;5016701;28;20424;-91
2021/11/19 03:16:33;;;;;;;41.42;23.40;;;;;;;;;;5016064;28;20181;-91
2021/11/19 03:18:59;;;;;;;41.17;22.40;;;;;;;;;;5016238;28;20169;-90
2021/11/19 03:21:25;;;;;;;41.20;25.50;;;9.90;99.90;;;;;;5016326;28;20404;-90
2021/11/19 03:23:53;;;;;;;39.27;24.20;;;;;;;;;;5007325;28;20511;-90
2021/11/19 03:26:19;;;;;;;48.50;26.23;;;9.90;99.90;;;;;;5015328;28;20169;-90
2021/11/19 03:28:45;;;;;;;42.10;23.27;;;;;;;;;;5015981;28;20923;-90
2021/11/19 03:31:13;;;;;;;46.88;26.33;;;9.90;99.90;;;;;;5010462;28;20560;-91
2021/11/19 03:33:41;;;;;;;42.60;24.60;;;9.90;99.90;;;;;;5014565;28;20267;-91
2021/11/19 03:36:09;;;;;;;39.80;22.80;;;9.90;99.90;;;;;;5008929;28;20424;-90
2021/11/19 03:38:37;;;;;;;39.90;25.50;;;10.00;99.90;;;;;;5016529;28;20451;-90
2021/11/19 03:41:04;;;;;;;41.57;24.23;;;10.00;99.90;;;;;;5009577;28;20189;-90
2021/11/19 03:43:35;;;;;;;46.27;24.33;;;9.90;99.90;;;;;;5016860;28;20927;-90
2021/11/19 03:46:06;;;;;;;47.13;26.55;;;9.30;99.90;;;;;;5010041;28;20431;-91
2021/11/19 03:48:34;;;;;;;48.33;25.70;;;10.00;99.90;;;;;;5014738;28;20180;-91
2021/11/19 03:51:09;;;;;;;43.07;24.47;;;10.00;99.90;;;;;;5008027;28;20557;-89
2021/11/19 03:53:34;;;;;;;46.33;26.03;;;9.80;99.90;;;;;;5016111;28;20552;-90
2021/11/19 03:56:01;;;;;;;44.67;24.03;;;9.90;99.90;;;;;;5016091;28;20407;-90
2021/11/19 03:58:30;;;;;;;44.22;24.17;;;9.70;99.90;;;;;;5011847;28;20165;-90
2021/11/19 04:01:26;;;;;;;42.92;24.77;;;9.70;99.90;;;;;;5015265;28;20204;-90
2021/11/19 04:03:53;;;;;;;51.42;26.42;;;9.80;99.90;;;;;;5006642;28;20197;-90
2021/11/19 04:06:21;;;;;;;41.03;23.53;;;9.60;99.90;;;;;;5014069;28;20177;-92
2021/11/19 04:08:46;;;;;;;45.87;25.93;;;9.30;99.90;;;;;;5015370;28;20415;-90
2021/11/19 04:11:13;;;;;;;42.30;27.63;;;9.20;99.90;;;;;;5009369;28;20467;-90
2021/11/19 04:13:39;;;;;;;44.95;24.88;;;9.80;99.90;;;;;;5015577;28;20240;-90
2021/11/19 04:16:10;;;;;;;33.47;19.65;;;9.70;99.90;;;;;;5009430;28;20541;-91
2021/11/19 04:18:36;;;;;;;40.57;25.30;;;9.70;99.90;;;;;;5015447;28;20164;-90
2021/11/19 04:21:02;;;;;;;43.83;24.90;;;9.80;99.90;;;;;;5008066;28;20854;-91
2021/11/19 04:23:27;;;;;;;53.30;27.57;;;9.80;99.90;;;;;;5018229;28;20169;-92
2021/11/19 04:25:56;;;;;;;38.50;22.43;;;9.80;99.90;;;;;;5007701;28;20416;-90
2021/11/19 04:28:21;;;;;;;41.80;26.33;;;9.70;99.90;;;;;;5018150;28;20435;-91
2021/11/19 04:30:49;;;;;;;45.83;26.03;;;10.00;99.90;;;;;;5014804;28;20212;-90
2021/11/19 04:33:17;;;;;;;44.58;25.63;;;9.60;99.90;;;;;;5010881;28;20173;-90
2021/11/19 04:35:44;;;;;;;46.65;23.08;;;9.90;99.90;;;;;;5015738;28;20177;-91
2021/11/19 04:38:09;;;;;;;48.83;25.10;;;9.40;99.90;;;;;;5010105;28;20216;-91
2021/11/19 04:40:36;;;;;;;36.47;24.60;;;10.00;99.90;;;;;;5015883;28;20169;-91
2021/11/19 04:43:04;;;;;;;51.97;26.38;;;10.00;99.90;;;;;;5008048;28;20212;-90
2021/11/19 04:45:30;;;;;;;42.83;25.92;;;8.60;99.90;;;;;;5014862;28;20276;-90
2021/11/19 04:47:56;;;;;;;39.60;22.97;;;10.10;99.90;;;;;;5007506;28;20455;-90
2021/11/19 04:50:27;;;;;;;46.08;22.10;;;9.30;99.90;;;;;;5014788;28;20466;-89
2021/11/19 04:52:53;;;;;;;39.40;23.08;;;9.50;99.90;;;;;;5013738;28;20164;-89
2021/11/19 04:55:19;;;;;;;38.53;23.63;;;;;;;;;;5013585;28;20169;-91
2021/11/19 04:57:45;;;;;;;45.70;25.70;;;;;;;;;;5013521;28;20181;-90
2021/11/19 05:00:39;;;;;;;43.07;24.87;;;10.00;99.90;;;;;;5014940;28;20303;-90
2021/11/19 05:03:06;;;;;;;41.27;22.50;;;8.50;99.90;;;;;;5014672;28;20419;-90
2021/11/19 05:05:32;;;;;;;38.67;23.52;;;9.90;99.90;;;;;;5014981;28;20427;-91
2021/11/19 05:07:58;;;;;;;43.50;22.58;;;9.60;99.90;;;;;;5006510;28;20542;-90
2021/11/19 05:10:24;;;;;;;34.93;22.47;;;9.90;99.90;;;;;;5014864;28;20204;-89
2021/11/19 05:12:53;;;;;;;47.70;24.07;;;10.00;99.90;;;;;;5015748;28;20199;-90
2021/11/19 05:15:19;;;;;;;37.60;22.73;;;9.80;99.90;;;;;;5010145;28;20246;-91
2021/11/19 05:17:45;;;;;;;36.45;23.25;;;9.30;99.90;;;;;;5015609;28;20437;-89
2021/11/19 05:20:13;;;;;;;41.07;22.70;;;13.10;99.90;;;;;;5013971;28;20168;-89
2021/11/19 05:22:40;;;;;;;36.42;21.55;;;;;;;;;;5011458;28;20211;-90
2021/11/19 05:25:08;;;;;;;40.72;23.95;;;10.00;99.90;;;;;;5008141;28;20234;-90
2021/11/19 05:27:34;;;;;;;37.43;22.70;;;10.00;99.90;;;;;;5012948;28;20200;-90
2021/11/19 05:30:00;;;;;;;38.33;22.57;;;;;;;;;;5015656;28;20486;-90
2021/11/19 05:32:26;;;;;;;38.00;21.97;;;10.00;99.90;;;;;;5010176;28;20204;-90
2021/11/19 05:34:51;;;;;;;40.80;22.88;;;10.10;99.90;;;;;;5006645;28;20411;-91
2021/11/19 05:37:17;;;;;;;38.63;21.20;;;10.00;99.90;;;;;;5017896;28;20257;-91
2021/11/19 05:39:43;;;;;;;39.30;22.43;;;10.30;99.90;;;;;;5013632;28;20181;-91
2021/11/19 05:42:09;;;;;;;36.60;21.57;;;;;;;;;;5014704;28;20188;-91
2021/11/19 05:44:39;;;;;;;38.50;23.67;;;10.20;99.90;;;;;;5013006;28;20502;-90
2021/11/19 05:47:04;;;;;;;39.10;22.50;;;10.20;99.90;;;;;;5015663;28;20866;-89
2021/11/19 05:49:31;;;;;;;36.57;23.13;;;10.20;99.90;;;;;;5014971;28;20422;-90
2021/11/19 05:51:58;;;;;;;35.47;22.50;;;10.20;99.90;;;;;;5014981;28;20500;-90
2021/11/19 05:54:27;;;;;;;44.37;25.57;;;10.10;99.90;;;;;;5011867;28;20177;-90
2021/11/19 05:56:53;;;;;;;41.17;25.80;;;;;;;;;;5017288;28;20412;-91
2021/11/19 05:59:24;;;;;;;37.73;22.53;;;10.10;99.90;;;;;;5011888;28;20479;-92
2021/11/19 06:01:56;;;;;;;46.40;27.57;;;10.20;99.90;;;;;;5017615;28;20428;-90
2021/11/19 06:04:22;;;;;;;43.80;24.53;;;;;;;;;;5018517;28;20473;-90
2021/11/19 06:06:48;;;;;;;45.30;24.93;;;;;;;;;;5019605;28;20431;-89
2021/11/19 06:09:18;;;;;;;43.35;26.45;;;10.20;99.90;;;;;;5018648;28;20432;-91
2021/11/19 06:11:49;;;;;;;46.95;25.85;;;10.10;99.90;;;;;;5007087;28;20286;-90
2021/11/19 06:14:31;;;;;;;56.10;28.02;;;10.10;99.90;;;;;;5024694;28;20172;-90
2021/11/19 06:17:04;;;;;;;40.00;24.25;;;10.20;99.90;;;;;;5015905;28;20635;-91
2021/11/19 06:19:35;;;;;;;47.45;24.42;;;10.20;99.90;;;;;;5023409;28;20196;-91
2021/11/19 06:22:10;;;;;;;40.67;24.75;;;10.20;99.90;;;;;;5023411;28;20177;-91
2021/11/19 06:24:40;;;;;;;50.55;27.00;;;10.20;99.90;;;;;;5024422;28;20176;-88
2021/11/19 06:27:11;;;;;;;45.55;27.00;;;12.40;99.90;;;;;;5026117;28;20224;-91
2021/11/19 06:29:39;;;;;;;48.65;26.55;;;;;;;;;;5023583;28;20270;-90
2021/11/19 06:32:06;;;;;;;44.65;25.05;;;10.20;99.90;;;;;;5021661;28;20200;-87
2021/11/19 06:34:32;;;;;;;48.25;27.10;;;;;;;;;;5025944;28;20180;-91
2021/11/19 06:37:05;;;;;;;47.25;24.50;;;;;;;;;;5019269;28;20228;-89
2021/11/19 06:39:31;;;;;;;49.10;27.20;;;;;;;;;;5023705;28;20652;-90
2021/11/19 06:42:03;;;;;;;48.78;28.02;;;10.20;99.90;;;;;;5016849;28;20434;-90
2021/11/19 06:44:29;;;;;;;39.45;23.85;;;10.30;99.90;;;;;;5024316;28;20180;-89
2021/11/19 06:46:57;;;;;;;37.17;23.90;;;;;;;;;;5013607;28;20643;-91
2021/11/19 06:49:26;;;;;;;44.83;25.67;;;;;;;;;;5026273;28;20224;-92
2021/11/19 06:51:56;;;;;;;44.03;25.77;;;10.20;99.90;;;;;;5016486;28;20423;-88
2021/11/19 06:54:22;;;;;;;47.83;28.77;;;;;;;;;;5023780;28;20459;-91
2021/11/19 06:56:49;;;;;;;41.27;24.60;;;10.30;99.90;;;;;;5023013;28;20183;-91
2021/11/19 06:59:18;;;;;;;43.70;21.57;;;;;;;;;;5021361;28;20423;-88
2021/11/19 07:01:44;;;;;;;37.80;22.77;;;;;;;;;;5023613;28;20423;-91
2021/11/19 07:04:12;;;;;;;35.70;20.43;;;10.40;99.90;;;;;;5023944;28;20479;-89
2021/11/19 07:06:39;;;;;;;43.90;25.33;;;10.40;99.90;;;;;;5019225;28;20423;-89
2021/11/19 07:09:07;;;;;;;37.93;24.40;;;10.50;99.90;;;;;;5014550;28;20851;-92
2021/11/19 07:11:33;;;;;;;48.17;27.30;;;;;;;;;;5020173;28;20951;-88
2021/11/19 07:13:59;;;;;;;41.97;25.43;;;;;;;;;;5012175;28;20507;-92
2021/11/19 07:16:30;;;;;;;43.37;23.37;;;10.40;99.90;;;;;;5019484;28;20473;-91
2021/11/19 07:18:56;;;;;;;48.17;26.45;;;;;;;;;;5010676;28;20427;-89
2021/11/19 07:21:25;;;;;;;45.97;26.70;;;10.30;99.90;;;;;;5006539;28;20215;-91
2021/11/19 07:23:51;;;;;;;39.67;22.00;;;10.40;99.90;;;;;;5001488;28;20428;-88
2021/11/19 07:26:18;;;;;;;40.25;22.23;;;;;;;;;;4998529;28;20185;-87
2021/11/19 07:28:50;;;;;;;46.90;26.67;;;10.40;99.90;;;;;;4657944;28;10000324;-90
2021/11/19 07:31:16;;;;;;;45.93;23.80;;;;;;;;;;4998963;28;20468;-91
2021/11/19 07:33:43;;;;;;;46.07;25.37;;;;;;;;;;5016777;28;20396;-88
2021/11/19 07:36:22;;;;;;;43.43;25.07;;;10.40;99.90;;;;;;5009701;28;20406;-90
2021/11/19 07:38:59;;;;;;;;;;;;;;;;;;;;;
2021/11/19 07:41:27;;;;;;;41.35;24.63;;;10.50;99.90;;;;;;5003887;28;20263;-88
2021/11/19 07:43:53;;;;;;;35.53;22.60;;;10.50;99.90;;;;;;5007583;28;20196;-92
2021/11/19 07:46:23;;;;;;;40.60;21.43;;;10.50;99.90;;;;;;5000398;28;20413;-88
2021/11/19 07:48:54;;;;;;;36.80;21.67;;;10.50;99.90;;;;;;5007247;28;20416;-91
2021/11/19 07:51:28;;;;;;;36.90;20.90;;;10.50;99.90;;;;;;5009668;28;20503;-92
2021/11/19 07:54:05;;;;;;;;;;;;;;;;;;;;;
2021/11/19 07:56:39;;;;;;;35.83;20.70;;;10.60;99.90;;;;;;5001070;28;20658;-86
2021/11/19 07:59:21;;;;;;;35.08;20.73;;;10.60;99.90;;;;;;5004657;28;20961;-86
2021/11/19 08:01:47;;;;;;;34.70;19.70;;;;;;;;;;4994035;28;20181;-86
2021/11/19 08:04:14;;;;;;;33.83;19.77;;;10.60;99.90;;;;;;4992649;28;20166;-89
2021/11/19 08:06:40;;;;;;;32.93;21.37;;;13.50;99.90;;;;;;4990620;28;20428;-87
2021/11/19 08:09:07;;;;;;;32.38;21.30;;;10.40;99.90;;;;;;4992850;28;20448;-87
2021/11/19 08:11:33;;;;;;;36.25;22.50;;;10.10;99.90;;;;;;4993186;28;20208;-85
2021/11/19 08:13:59;;;;;;;34.70;20.57;;;10.20;99.90;;;;;;4993532;28;20227;-87
2021/11/19 08:16:25;;;;;;;40.23;23.40;;;10.00;99.90;;;;;;4989063;28;20429;-86
2021/11/19 08:18:59;;;;;;;37.83;22.90;;;10.50;99.90;;;;;;4995823;28;20177;-90
2021/11/19 08:21:29;;;;;;;32.43;21.20;;;9.50;99.90;;;;;;4997187;28;20463;-88
2021/11/19 08:24:01;;;;;;;35.08;17.45;;;9.20;99.90;;;;;;4986738;28;20436;-86
2021/11/19 08:26:41;;;;;;;28.80;18.58;;;10.70;99.90;;;;;;4995003;28;20170;-88
2021/11/19 08:29:10;;;;;;;33.60;20.50;;;10.30;99.90;;;;;;4987928;28;20604;-90
2021/11/19 08:31:36;;;;;;;29.60;18.88;;;9.80;99.90;;;;;;4994775;28;20472;-89
2021/11/19 08:34:03;;;;;;;32.90;20.65;;;;;;;;;;4987072;28;20179;-88
2021/11/19 08:36:31;;;;;;;30.13;19.45;;;10.70;99.90;;;;;;4993234;28;20543;-88
2021/11/19 08:38:58;;;;;;;29.02;18.10;;;10.70;99.90;;;;;;4992379;28;20309;-88
2021/11/19 08:41:25;;;;;;;34.28;20.02;;;;;;;;;;4993629;28;20335;-88
2021/11/19 08:43:52;;;;;;;27.58;18.40;;;10.60;99.90;;;;;;4994851;28;20205;-88
2021/11/19 08:46:27;;;;;;;29.35;18.70;;;10.60;99.90;;;;;;4989330;28;20576;-87
2021/11/19 08:48:53;;;;;;;27.85;18.52;;;;;;;;;;4993772;28;20177;-88
2021/11/19 08:51:22;;;;;;;27.37;17.53;;;10.60;99.90;;;;;;4993552;28;20205;-89
2021/11/19 08:53:51;;;;;;;24.80;15.63;;;14.70;99.90;;;;;;4994423;28;20496;-88
2021/11/19 08:56:17;;;;;;;34.63;19.77;;;10.60;99.90;;;;;;4994579;28;20215;-88
2021/11/19 08:59:02;;;;;;;30.63;18.67;;;10.60;99.90;;;;;;4992964;28;20176;-89
2021/11/19 09:01:33;;;;;;;33.58;19.20;;;10.60;99.90;;;;;;4991400;28;20184;-87
2021/11/19 09:04:02;;;;;;;27.20;19.38;;;;;;;;;;4991942;28;20208;-86
2021/11/19 09:06:28;;;;;;;30.90;20.85;;;;;;;;;;4989842;28;20169;-88
2021/11/19 09:08:54;;;;;;;32.63;20.00;;;;;;;;;;4993644;28;20629;-88
2021/11/19 09:11:25;;;;;;;26.08;18.80;;;11.10;99.90;;;;;;5008777;28;20208;-88
2021/11/19 09:13:53;;;;;;;33.80;20.23;;;10.70;99.90;;;;;;4994473;28;20173;-88
2021/11/19 09:16:23;;;;;;;28.73;20.20;;;10.70;99.90;;;;;;5017356;28;20172;-86
2021/11/19 09:19:10;;;;;;;36.07;22.17;;;10.70;99.90;;;;;;5021138;28;20215;-90
2021/11/19 09:22:17;;;;;;;30.40;20.10;;;10.70;99.90;;;;;;5001304;28;20423;-90
2021/11/19 09:24:43;;;;;;;30.73;18.73;;;;;;;;;;5020142;28;20167;-88
2021/11/19 09:27:13;;;;;;;34.57;21.27;;;10.70;99.90;;;;;;5021688;28;20512;-89
2021/11/19 09:29:59;;;;;;;34.27;20.27;;;10.70;99.90;;;;;;5005649;28;20907;-88
2021/11/19 09:32:26;;;;;;;34.00;20.90;;;;;;;;;;5022312;28;20470;-91
2021/11/19 09:34:55;;;;;;;34.03;23.10;;;10.80;99.90;;;;;;5006154;28;20438;-89
2021/11/19 09:37:24;;;;;;;35.23;19.40;;;10.70;99.90;;;;;;4979969;28;20220;-88
2021/11/19 09:39:50;;;;;;;34.03;21.70;;;;;;;;;;4984385;28;21095;-85
2021/11/19 09:42:42;;;;;;;29.87;20.43;;;10.80;99.90;;;;;;4995390;28;20172;-88
2021/11/19 09:45:26;;;;;;;28.02;20.00;;;10.90;99.90;;;;;;4992524;28;20420;-89
2021/11/19 09:48:11;;;;;;;33.33;20.67;;;12.90;99.90;;;;;;4996565;28;20189;-88
2021/11/19 09:50:58;;;;;;;37.65;23.98;;;10.90;99.90;;;;;;4997254;28;20527;-89
2021/11/19 09:53:45;;;;;;;37.42;21.80;;;10.90;99.90;;;;;;4991749;28;20181;-88
2021/11/19 09:56:28;;;;;;;36.57;23.80;;;10.90;99.90;;;;;;4991527;28;20649;-85
2021/11/19 09:59:12;;;;;;;36.13;20.45;;;10.90;99.90;;;;;;4996335;28;20439;-89
2021/11/19 10:01:41;;;;;;;34.77;23.87;;;11.80;99.90;;;;;;4997453;28;20694;-88
2021/11/19 10:04:22;;;;;;;32.92;20.55;;;10.90;99.90;;;;;;4990805;28;20837;-89
2021/11/19 10:07:02;;;;;;;34.35;22.08;;;11.80;99.90;;;;;;4995226;28;20177;-86
2021/11/19 10:09:47;;;;;;;33.25;20.33;;;11.00;99.90;;;;;;4995154;28;20184;-88
2021/11/19 10:12:28;;;;;;;39.22;24.48;;;11.00;99.90;;;;;;4990460;28;20209;-89
2021/11/19 10:15:03;;;;;;;36.92;23.25;;;11.00;99.90;;;;;;5002963;28;20170;-89
2021/11/19 10:17:56;;;;;;;41.33;24.80;;;10.80;99.90;;;;;;4994271;28;20597;-88
2021/11/19 10:20:53;;;;;;;30.85;22.48;;;11.00;99.90;;;;;;4995863;28;20170;-89
2021/11/19 10:23:40;;;;;;;35.20;21.70;;;11.00;99.90;;;;;;4999394;28;20711;-87
2021/11/19 10:26:33;;;;;;;37.43;22.93;;;11.10;99.90;;;;;;4988873;28;20284;-89
2021/11/19 10:29:21;;;;;;;32.78;20.60;;;11.00;99.90;;;;;;4994689;28;20496;-92
2021/11/19 10:31:49;;;;;;;40.30;23.52;;;11.10;99.90;;;;;;4998013;28;20224;-89
2021/11/19 10:34:23;;;;;;;36.60;24.15;;;13.40;99.90;;;;;;4991556;28;20196;-90
2021/11/19 10:37:02;;;;;;;33.00;21.27;;;11.10;99.90;;;;;;5000005;28;20602;-89
2021/11/19 10:39:28;;;;;;;30.20;21.38;;;;;;;;;;5000066;28;20566;-91
2021/11/19 10:42:05;;;;;;;39.47;22.67;;;11.10;99.90;;;;;;4989182;28;20189;-90
2021/11/19 10:44:31;;;;;;;32.72;20.77;;;;;;;;;;5000176;28;20412;-91
2021/11/19 10:47:17;;;;;;;30.88;20.38;;;11.10;99.90;;;;;;4993214;28;20216;-91
2021/11/19 10:50:08;;;;;;;37.40;23.90;;;10.80;99.90;;;;;;4999613;28;20173;-86
2021/11/19 10:52:54;;;;;;;32.50;21.50;;;11.10;99.90;;;;;;4995544;28;20432;-91
2021/11/19 10:55:45;;;;;;;35.00;21.92;;;11.10;99.90;;;;;;4999788;28;20409;-89
2021/11/19 10:58:49;;;;;;;34.80;21.83;;;11.10;99.90;;;;;;4998054;28;20668;-92
2021/11/19 11:01:15;;;;;;;38.13;25.08;;;;;;;;;;5000933;28;20645;-91
2021/11/19 11:04:14;;;;;;;38.75;23.98;;;11.20;99.90;;;;;;4997938;28;20185;-90
2021/11/19 11:06:39;;;;;;;40.10;25.23;;;11.30;99.90;;;;;;5000396;28;20649;-91
2021/11/19 11:09:23;;;;;;;38.20;23.30;;;11.30;99.90;;;;;;5000276;28;20510;-92
2021/11/19 11:12:08;;;;;;;39.72;24.63;;;11.90;99.90;;;;;;4993674;28;20221;-91
2021/11/19 11:14:42;;;;;;;39.55;24.58;;;11.20;99.90;;;;;;5003716;28;20196;-92
2021/11/19 11:17:50;;;;;;;34.77;24.47;;;11.10;99.90;;;;;;5000941;28;20181;-91
2021/11/19 11:20:22;;;;;;;36.97;22.70;;;10.90;99.90;;;;;;5010239;28;20563;-92
2021/11/19 11:22:58;;;;;;;36.33;23.58;;;11.20;99.90;;;;;;5010934;28;20416;-93
2021/11/19 11:25:40;;;;;;;37.90;21.95;;;11.40;99.90;;;;;;5000708;28;20245;-93
2021/11/19 11:28:09;;;;;;;29.33;18.63;;;11.30;99.90;;;;;;4997240;28;20177;-90
2021/11/19 11:30:46;;;;;;;34.85;22.73;;;11.40;99.90;;;;;;5001885;28;20466;-90
2021/11/19 11:33:29;;;;;;;33.57;22.10;;;11.50;99.90;;;;;;5005739;28;20305;-92
2021/11/19 11:36:15;;;;;;;35.37;24.00;;;11.30;99.90;;;;;;5080173;22;20501;-90
2021/11/19 11:38:52;;;;;;;34.30;23.45;;;11.30;99.90;;;;;;5046273;28;20414;-91
2021/11/19 11:41:34;;;;;;;37.50;24.30;;;11.30;99.90;;;;;;5050691;28;20175;-90
2021/11/19 11:44:46;;;;;;;36.20;22.60;;;11.40;99.90;;;;;;5011818;28;20837;-88
2021/11/19 11:47:12;;;;;;;36.37;24.30;;;;;;;;;;5014699;28;20448;-89
2021/11/19 11:49:52;;;;;;;30.25;22.40;;;11.40;99.90;;;;;;5025030;28;20498;-87
2021/11/19 11:52:36;;;;;;;36.77;21.33;;;11.40;99.90;;;;;;5020898;28;20258;-89
2021/11/19 11:55:29;;;;;;;33.37;22.37;;;14.40;99.90;;;;;;5004147;28;20427;-87
2021/11/19 11:58:06;;;;;;;35.03;21.47;;;11.40;99.90;;;;;;5020835;28;20423;-85
2021/11/19 12:01:04;;;;;;;34.50;21.97;;;11.20;99.90;;;;;;5015435;28;20502;-88
2021/11/19 12:03:42;;;;;;;34.73;22.77;;;12.60;99.90;;;;;;5019013;28;20501;-88
2021/11/19 12:06:30;;;;;;;31.25;23.48;;;11.60;99.90;;;;;;5005843;28;20424;-88
2021/11/19 12:09:14;;;;;;;31.10;18.38;;;12.20;99.90;;;;;;5018289;28;20610;-88
2021/11/19 12:11:43;;;;;;;28.57;18.10;;;;;;;;;;5027435;28;20260;-88
2021/11/19 12:14:20;;;;;;;32.15;20.80;;;11.70;99.90;;;;;;5030259;28;20450;-88
2021/11/19 12:17:28;;;;;;;35.20;23.35;;;11.60;99.90;;;;;;5023678;28;20172;-93
2021/11/19 12:20:11;;;;;;;27.90;18.30;;;11.70;99.90;;;;;;4982107;28;20197;-88
2021/11/19 12:22:54;;;;;;;29.50;20.52;;;11.90;99.90;;;;;;4974805;28;20430;-88
2021/11/19 12:25:55;;;;;;;29.00;20.77;;;11.80;99.90;;;;;;5000992;28;20191;-89
2021/11/19 12:28:33;;;;;;;31.17;21.27;;;11.70;99.90;;;;;;5037261;28;20403;-88
2021/11/19 12:31:24;;;;;;;35.80;22.60;;;11.60;99.90;;;;;;5052142;28;20230;-88
2021/11/19 12:33:57;;;;;;;36.83;23.10;;;11.60;99.90;;;;;;5036851;28;20242;-86
2021/11/19 12:36:34;;;;;;;40.08;24.20;;;11.60;99.90;;;;;;5037198;28;20856;-89
2021/11/19 12:39:07;;;;;;;42.73;23.17;;;11.70;99.90;;;;;;5035737;28;20209;-87
2021/11/19 12:41:44;;;;;;;40.67;24.50;;;12.10;99.90;;;;;;5034497;28;20407;-88
2021/11/19 12:44:32;;;;;;;34.85;24.17;;;11.70;99.90;;;;;;5019122;28;20393;-86
2021/11/19 12:47:13;;;;;;;35.80;23.77;;;11.70;99.90;;;;;;5020143;28;20172;-86
2021/11/19 12:50:10;;;;;;;34.63;20.67;;;11.70;99.90;;;;;;5035944;28;20573;-87
2021/11/19 12:53:03;;;;;;;40.33;25.88;;;11.60;99.90;;;;;;5013464;28;20514;-89
2021/11/19 12:56:02;;;;;;;27.50;19.80;;;11.80;99.90;;;;;;5030651;28;20168;-87
2021/11/19 12:58:37;;;;;;;31.05;22.58;;;11.80;99.90;;;;;;5031738;28;20415;-85
2021/11/19 13:01:03;;;;;;;31.07;21.63;;;;;;;;;;5030325;28;20171;-87
2021/11/19 13:03:32;;;;;;;36.40;23.40;;;12.00;99.90;;;;;;5031499;28;20481;-86
2021/11/19 13:06:24;;;;;;;32.15;22.70;;;10.90;99.90;;;;;;5041807;28;20447;-90
2021/11/19 13:08:50;;;;;;;36.20;24.87;;;;;;;;;;5024892;28;20749;-87
2021/11/19 13:11:37;;;;;;;34.83;23.83;;;12.00;99.90;;;;;;5026070;28;20470;-88
2021/11/19 13:17:11;;;;;;;30.88;23.05;;;12.10;99.90;;;;;;5038282;28;20172;-92
2021/11/19 13:19:40;;;;;;;33.80;22.67;;;13.60;99.90;;;;;;5025882;28;20180;-87